Terminal Aerodrome Forecast
Issued by NWS Spokane, WA

Home | Current Version | Previous Version | Text Only | Print | Product List | Glossary On
Versions: 1 2 3 4 5 6 7 8 9 10 11 12 13
000
FTUS46 KOTX 302342 CCA
TAFEAT
TAF COR
KEAT 302342Z 3100/3124 30022G32KT P6SM SKC
     FM310400 30016G22KT P6SM SKC
     FM310900 31013KT P6SM SKC
     FM311800 30007KT P6SM SKC=

USA.gov is the U.S. government's official web portal to all federal, state and local government web resources and services.